Latest Coastal Weather Observations for Minlaton Airport

IDS60701

Issued at 1:11 pm CDT Saturday 13 February 2016 (issued every 10 minutes, with the page automatically refreshed every 10 minutes)

About coastal observations | Map of coastal stations | Coastal observations for SA | Marine services | Other Formats
Station Details ID: 022031 Name: MINLATON AERO Lat: -34.75 Lon: 137.53 Height: 32.0 m
Data from the previous 72 hours. | See also: Recent months at Minlaton Airport
Date/Time
CDT
Temp

°C
Wind Pressure Rain
since 9am
mm
Weather Cloud Vis
km
Sea
Height
m
Swell
Dir
 
Speed
knots
Gust
knots
hPa Trend Height
m
Period
s
Dir
13/01:00pm 25.1 W 10 14 1012.6 - 0.0 - - - - - - -
13/12:30pm 25.1 W 10 13 1012.7 - 0.0 - - - - - - -
13/12:00pm 25.2 W 9 13 1012.8 - 0.0 - - - - - - -
13/11:30am 24.3 W 9 12 1012.8 - 0.0 - - - - - - -
13/11:00am 23.5 SW 8 12 1012.8 - 0.0 - - - - - - -
13/10:30am 23.2 WSW 7 11 1012.7 - 0.0 - - - - - - -
13/10:00am 23.1 WSW 8 10 1012.7 - 0.0 - - - - - - -
13/09:30am 22.7 WSW 7 11 1012.6 - 0.0 - - - - - - -
13/09:00am 21.7 WSW 5 8 1012.5 - 0.0 - - - - - - -
13/08:30am 20.0 WNW 1 3 1012.2 - 0.0 - - - - - - -
13/08:00am 17.8 CALM 0 0 1012.3 - 0.0 - - - - - - -
13/07:30am 15.8 CALM 0 0 1012.1 - 0.0 - - - - - - -
13/07:00am 14.4 CALM 0 0 1011.8 - 0.0 - - - - - - -
13/06:30am 14.2 CALM 0 0 1011.5 - 0.0 - - - - - - -
13/06:00am 13.8 CALM 0 0 1011.2 - 0.0 - - - - - - -
13/05:30am 13.8 CALM 0 0 1010.8 - 0.0 - - - - - - -
13/05:00am 13.4 CALM 0 0 1010.9 - 0.0 - - - - - - -
13/04:30am 14.5 CALM 0 0 1010.9 - 0.0 - - - - - - -
13/04:00am 14.7 CALM 0 0 1010.6 - 0.0 - - - - - - -
13/03:30am 14.4 NNE 1 5 1010.8 - 0.0 - - - - - - -
13/03:00am 14.6 CALM 0 3 1011.2 - 0.0 - - - - - - -
13/02:30am 15.4 NNE 5 6 1011.2 - 0.0 - - - - - - -
13/02:00am 16.0 NNE 5 6 1011.7 - 0.0 - - - - - - -
13/01:30am 15.1 NE 5 7 1011.6 - 0.0 - - - - - - -
13/01:00am 14.4 ENE 1 4 1012.0 - 0.0 - - - - - - -
13/12:30am 15.1 E 6 7 1012.0 - 0.0 - - - - - - -
13/12:00am 15.8 NE 5 6 1012.1 - 0.0 - - - - - - -
 
Date/Time
CDT
Temp

°C
Wind Pressure Rain
since 9am
mm
Weather Cloud Vis
km
Sea
Height
m
Swell
Dir
 
Speed
knots
Gust
knots
hPa Trend Height
m
Period
s
Dir
12/11:30pm 16.6 NE 5 5 1012.1 - 0.0 - - - - - - -
12/11:00pm 17.5 NNE 3 3 1012.3 - 0.0 - - - - - - -
12/10:30pm 18.9 CALM 0 0 1012.3 - 0.0 - - - - - - -
12/10:00pm 19.9 CALM 0 0 1012.2 - 0.0 - - - - - - -
12/09:30pm 20.4 CALM 0 4 1012.1 - 0.0 - - - - - - -
12/09:00pm 20.4 CALM 0 0 1012.0 - 0.0 - - - - - - -
12/08:30pm 22.0 S 4 4 1011.8 - 0.0 - - - - - - -
12/08:00pm 25.2 S 6 7 1011.9 - 0.0 - - - - - - -
12/07:30pm 26.7 SSW 9 11 1011.9 - 0.0 - - - - - - -
12/07:00pm 27.3 SSW 11 14 1012.0 - 0.0 - - - - - - -
12/06:30pm 27.9 SW 15 17 1012.1 - 0.0 - - - - - - -
12/06:00pm 27.7 WSW 17 20 1011.9 - 0.0 - - - - - - -
12/05:30pm 28.2 WSW 15 18 1011.9 - 0.0 - - - - - - -
12/05:00pm 27.9 WSW 14 16 1011.9 - 0.0 - - - - - - -
12/04:30pm 28.8 WSW 13 15 1011.9 - 0.0 - - - - - - -
12/04:00pm 29.0 W 13 15 1012.1 - 0.0 - - - - - - -
12/03:30pm 29.9 WSW 11 13 1012.2 - 0.0 - - - - - - -
12/03:00pm 30.2 W 10 13 1012.4 - 0.0 - - - - - - -
12/02:30pm 29.3 WSW 10 13 1012.8 - 0.0 - - - - - - -
12/02:00pm 29.7 W 7 10 1013.0 - 0.0 - - - - - - -
12/01:30pm 29.2 W 8 12 1013.3 - 0.0 - - - - - - -
12/01:00pm 28.6 WSW 12 15 1013.7 - 0.0 - - - - - - -
12/12:30pm 29.0 W 11 14 1013.8 - 0.0 - - - - - - -
12/12:00pm 28.2 WSW 9 12 1014.1 - 0.0 - - - - - - -
12/11:30am 27.8 WSW 5 8 1014.5 - 0.0 - - - - - - -
12/11:00am 26.5 SW 5 8 1014.6 - 0.0 - - - - - - -
12/10:30am 25.2 SW 5 8 1015.0 - 0.0 - - - - - - -
12/10:00am 24.5 SE 4 7 1015.2 - 0.0 - - - - - - -
12/09:30am 22.1 ESE 7 11 1015.2 - 0.0 - - - - - - -
12/09:00am 20.0 SE 9 11 1015.3 - 0.0 - - - - - - -
12/08:30am 19.0 SSE 10 13 1015.5 - 0.0 - - - - - - -
12/08:00am 16.5 S 5 6 1015.5 - 0.0 - - - - - - -
12/07:30am 14.7 SE 7 7 1015.3 - 0.0 - - - - - - -
12/07:00am 13.5 SSE 7 8 1015.1 - 0.0 - - - - - - -
12/06:30am 13.9 SE 8 9 1014.8 - 0.0 - - - - - - -
12/06:00am 13.8 SSE 9 10 1014.6 - 0.0 - - - - - - -
12/05:30am 13.6 SSE 9 11 1014.2 - 0.0 - - - - - - -
12/05:00am 13.2 SSE 8 9 1014.3 - 0.0 - - - - - - -
12/04:30am 13.2 SSE 7 8 1014.4 - 0.0 - - - - - - -
12/04:00am 13.0 S 9 9 1014.4 - 0.0 - - - - - - -
12/03:30am 13.8 SSE 10 10 1014.6 - 0.0 - - - - - - -
12/03:00am 14.0 SSE 9 9 1014.9 - 0.0 - - - - - - -
12/02:30am 14.1 SSE 8 9 1015.2 - 0.0 - - - - - - -
12/02:00am 14.0 S 8 10 1015.4 - 0.0 - - - - - - -
12/01:30am 15.6 SE 8 9 1015.3 - 0.0 - - - - - - -
12/01:00am 16.1 SSE 9 10 1015.7 - 0.0 - - - - - - -
12/12:30am 16.5 SSE 11 13 1015.9 - 0.0 - - - - - - -
12/12:00am 17.1 SE 11 15 1015.8 - 0.0 - - - - - - -
 
Date/Time
CDT
Temp

°C
Wind Pressure Rain
since 9am
mm
Weather Cloud Vis
km
Sea
Height
m
Swell
Dir
 
Speed
knots
Gust
knots
hPa Trend Height
m
Period
s
Dir
11/11:30pm 17.3 SSE 13 16 1016.2 - 0.0 - - - - - - -
11/11:00pm 17.5 SSE 13 16 1016.4 - 0.0 - - - - - - -
11/10:30pm 17.8 SSE 17 22 1016.4 - 0.0 - - - - - - -
11/10:00pm 18.2 SSE 19 24 1016.2 - 0.0 - - - - - - -
11/09:30pm 18.4 SSE 21 27 1016.2 - 0.0 - - - - - - -
11/09:00pm 18.7 SSE 21 28 1015.7 - 0.0 - - - - - - -
11/08:30pm 19.3 SSE 19 25 1015.2 - 0.0 - - - - - - -
11/08:00pm 20.3 SSE 23 28 1014.9 - 0.0 - - - - - - -
11/07:30pm 21.7 SSE 22 27 1014.6 - 0.0 - - - - - - -
11/07:00pm 22.9 SSE 21 27 1014.5 - 0.0 - - - - - - -
11/06:30pm 24.1 SSE 20 25 1014.2 - 0.0 - - - - - - -
11/06:00pm 25.2 SSE 20 24 1014.1 - 0.0 - - - - - - -
11/05:30pm 26.1 SSE 18 23 1014.1 - 0.0 - - - - - - -
11/05:00pm 26.9 SSE 17 23 1013.9 - 0.0 - - - - - - -
11/04:30pm 28.1 SSE 15 21 1014.0 - 0.0 - - - - - - -
11/04:00pm 28.3 SSE 15 21 1014.2 - 0.0 - - - - - - -
11/03:30pm 28.4 S 13 19 1014.3 - 0.0 - - - - - - -
11/03:00pm 29.4 SSE 15 20 1014.4 - 0.0 - - - - - - -
11/02:30pm 29.1 SSE 16 22 1014.9 - 0.0 - - - - - - -
11/02:00pm 28.6 SSE 14 19 1014.8 - 0.0 - - - - - - -
11/01:30pm 28.3 SSE 15 20 1014.9 - 0.0 - - - - - - -
11/01:00pm 28.3 SSE 13 17 1015.1 - 0.0 - - - - - - -
11/12:30pm 26.8 SSE 15 20 1015.3 - 0.0 - - - - - - -
11/12:00pm 26.5 SE 15 20 1015.5 - 0.0 - - - - - - -
11/11:30am 25.1 SE 16 19 1015.6 - 0.0 - - - - - - -
11/11:00am 24.6 SE 15 19 1015.8 - 0.0 - - - - - - -
11/10:30am 23.7 SE 16 21 1016.3 - 0.0 - - - - - - -
11/10:00am 22.9 SE 19 23 1016.2 - 0.0 - - - - - - -
11/09:30am 21.7 SE 20 25 1016.2 - 0.0 - - - - - - -
11/09:00am 20.4 SE 21 26 1016.3 - 0.0 - - - - - - -
11/08:30am 19.4 SE 17 23 1016.2 - 0.0 - - - - - - -
11/08:00am 18.0 SE 13 16 1016.0 - 0.0 - - - - - - -
11/07:30am 16.7 SSE 12 15 1016.0 - 0.0 - - - - - - -
11/07:00am 15.9 SSE 11 13 1015.6 - 0.0 - - - - - - -
11/06:30am 16.1 SSE 13 16 1015.4 - 0.0 - - - - - - -
11/06:00am 16.1 SSE 14 17 1015.3 - 0.0 - - - - - - -
11/05:30am 16.2 SSE 12 14 1015.2 - 0.0 - - - - - - -
11/05:00am 16.3 SSE 12 15 1014.9 - 0.0 - - - - - - -
11/04:30am 16.5 SSE 13 16 1014.7 - 0.0 - - - - - - -
11/04:00am 16.5 SSE 14 18 1014.5 - 0.0 - - - - - - -
11/03:30am 16.3 SSE 14 17 1014.6 - 0.0 - - - - - - -
11/03:00am 16.4 SSE 13 16 1014.7 - 0.0 - - - - - - -
11/02:30am 16.4 SSE 15 18 1014.7 - 0.0 - - - - - - -
11/02:00am 16.4 SSE 15 19 1014.8 - 0.0 - - - - - - -
11/01:30am 16.4 SSE 14 18 1015.1 - 0.0 - - - - - - -
11/01:00am 16.5 SSE 14 18 1015.2 - 0.0 - - - - - - -
11/12:30am 16.4 SSE 15 19 1015.3 - 0.0 - - - - - - -
11/12:00am 16.5 SSE 14 18 1015.3 - 0.0 - - - - - - -
 
Date/Time
CDT
Temp

°C
Wind Pressure Rain
since 9am
mm
Weather Cloud Vis
km
Sea
Height
m
Swell
Dir
 
Speed
knots
Gust
knots
hPa Trend Height
m
Period
s
Dir
10/11:30pm 16.6 SSE 14 18 1015.2 - 0.0 - - - - - - -
10/11:00pm 16.8 SSE 15 18 1015.3 - 0.0 - - - - - - -
10/10:30pm 17.2 SSE 17 21 1015.2 - 0.0 - - - - - - -
10/10:00pm 17.6 SSE 18 22 1015.0 - 0.0 - - - - - - -
10/09:30pm 17.9 SSE 17 23 1014.9 - 0.0 - - - - - - -
10/09:00pm 18.1 SSE 16 22 1014.8 - 0.0 - - - - - - -
10/08:30pm 18.8 SSE 19 23 1014.5 - 0.0 - - - - - - -
10/08:00pm 19.8 SSE 20 26 1014.5 - 0.0 - - - - - - -
10/07:30pm 21.1 SSE 18 23 1014.2 - 0.0 - - - - - - -
10/07:00pm 22.5 SSE 19 24 1014.0 - 0.0 - - - - - - -
10/06:30pm 23.1 SSE 20 23 1013.7 - 0.0 - - - - - - -
10/06:00pm 24.5 SSE 21 25 1013.5 - 0.0 - - - - - - -
10/05:30pm 24.9 SSE 20 25 1013.3 - 0.0 - - - - - - -
10/05:00pm 27.8 SSE 16 19 1012.8 - 0.0 - - - - - - -
10/04:30pm 29.3 SSE 15 22 1012.9 - 0.0 - - - - - - -
10/04:00pm 29.2 SSE 15 21 1013.0 - 0.0 - - - - - - -
10/03:30pm 28.8 SSE 14 20 1013.2 - 0.0 - - - - - - -
10/03:00pm 28.5 S 18 24 1013.5 - 0.0 - - - - - - -
10/02:46pm 29.1 S 15 25 1013.4 - 0.0 - - - - - - -
10/02:30pm 29.1 SSE 12 20 1013.6 - 0.0 - - - - - - -
10/02:00pm 30.7 SSE 12 18 1013.6 - 0.0 - - - - - - -
10/01:30pm 30.4 SE 12 17 1013.9 - 0.0 - - - - - - -

Other Formats:

Comma delimited format used in spreadsheet applications
http://www.bom.gov.au/fwo/IDS60701/IDS60701.95659.axf

JavaScript Object Notation format (JSON) in row-major order
http://www.bom.gov.au/fwo/IDS60701/IDS60701.95659.json